Capitol Logistics 226


KLAX
Los Angeles International Airport
Los Angeles, California, US
PHNL
Daniel K Inouye International Airport
Honolulu, Hawaii, US

Activity Log

Date Flight Route Aircraft Duration
04/10/2020 CPX116 SUMMR1 DINTY DUETS R576 DENNS MAGGI3 B744 4h 26m
11/22/2019 CPX116 SUMMR1 DINTY DUETS R576 DENNS MAGGI3 B744 5h 49m
07/12/2019 CPX226 SUMMR1 DINTY DUETS R576 DENNS MAGGI3 B763 5h 37m
06/24/2019 CPX226 SUMMR1 DINTY DUETS R576 DENNS MAGGI3 B763 5h 50m
04/02/2019 CPX226 SUMMR1 DINTY DUETS R576 DENNS MAGGI3 B763 6h 04m
03/27/2019 CPX116 SUMMR1 DINTY DUETS R576 DENNS MAGGI3 B744 5h 50m
01/19/2019 CPX226 VTU8 DINTY DUETS R576 DIALO/N0477F320 R576 DENNS MAGGI3 B763 5h 46m
12/24/2018 CPX116 SUMMR1 DINTY DUETS R576 DENNS MAGGI3 MD11 5h 12m
12/03/2018 CPX126 DINTY R576 DENNS B763 5h 40m

Route Details

Aircraft Information
Primary: Boeing 767-300BDSF
Backup: Not Available
Route Data
Distance: 2267nm
Sched. Duration: 6h 00m
Avg. Duration: 5h 35m (-64m)
Times Flown: 9
Recm'd Route: SUMMR1 DINTY DUETS R576 DENNS MAGGI3
Planned Altitude: 32,000ft
Origin Wx: KLAX 290953Z 00000KT 6SM BR OVC006 16/14 A2995 RMK AO2 SLP139 T01560139
Dest. Wx: PHNL 290953Z 06007KT 10SM FEW025 BKN045 BKN250 25/18 A3014 RMK AO2 SLP207 T02500183 403000228
Notes:

Financial History
Total Freight: 1,207,117lbs
Average Load: 134,124lbs/flt
Fuel Used: 770,534lbs
Avg. Fuel Used: 85,615lbs/flt
Fuel Expense: $909,868
Avg. Fuel Expense: $101,096
Avg. Fuel Cost: $1.18/lbs
Total Gross Income: $1,554,640
Pilot Pay: $1,751
Total Expenses: $168,369
Total Revenue: $465,693
Average Revenue: $172,737.73